Time;durP1;ratioP1;P1;durP2;ratioP2;P2;SDS_P1;SDS_P2;PMS_P1;PMS_P2;Temp;Humidity;BMP_temperature;BMP_pressure;BME280_temperature;BME280_humidity;BME280_pressure;Samples;Min_cycle;Max_cycle;Signal;HPM_P1;HPM_P2
2022/05/01 00:01:44;;;;;;;6.18;1.55;;;16.70;68.50;;;;;;6307291;22;20377;-76
2022/05/01 00:04:11;;;;;;;4.47;1.30;;;16.70;67.90;;;;;;6308146;22;20002;-74
2022/05/01 00:06:38;;;;;;;5.32;1.10;;;16.70;67.10;;;;;;6307639;22;20082;-82
2022/05/01 00:09:06;;;;;;;3.92;0.98;;;16.70;66.10;;;;;;6335882;22;19999;-73
2022/05/01 00:11:33;;;;;;;4.47;1.38;;;16.80;67.10;;;;;;6308222;22;19998;-74
2022/05/01 00:14:00;;;;;;;6.10;1.40;;;16.80;66.20;;;;;;6282818;22;19999;-76
2022/05/01 00:16:27;;;;;;;4.93;1.20;;;16.80;66.30;;;;;;6308286;22;20002;-78
2022/05/01 00:18:54;;;;;;;3.90;1.23;;;16.80;64.70;;;;;;6335234;22;20015;-75
2022/05/01 00:21:22;;;;;;;5.60;1.00;;;16.80;64.90;;;;;;6334709;22;20002;-76
2022/05/01 00:23:49;;;;;;;2.50;1.00;;;16.90;65.00;;;;;;6335621;22;20014;-75
2022/05/01 00:26:16;;;;;;;7.10;1.38;;;17.00;64.00;;;;;;6308323;22;20003;-76
2022/05/01 00:28:43;;;;;;;1.58;0.80;;;17.00;64.30;;;;;;6308106;22;19995;-76
2022/05/01 00:31:10;;;;;;;3.90;1.10;;;17.00;64.90;;;;;;6307972;22;20014;-73
2022/05/01 00:36:37;;;;;;;2.72;1.25;;;17.10;65.00;;;;;;6247265;22;20394;-73
2022/05/01 00:39:05;;;;;;;4.78;1.25;;;17.10;65.30;;;;;;6334565;22;20400;-73
2022/05/01 00:41:34;;;;;;;3.92;1.20;;;17.20;65.70;;;;;;6308629;22;20002;-73
2022/05/01 00:44:05;;;;;;;5.80;1.30;;;17.20;66.40;;;;;;6309712;22;20003;-73
2022/05/01 00:46:39;;;;;;;6.00;1.40;;;17.20;65.10;;;;;;6336420;22;20009;-73
2022/05/01 00:49:10;;;;;;;6.85;1.40;;;17.20;65.10;;;;;;6337095;22;20002;-73
2022/05/01 00:51:46;;;;;;;2.55;1.15;;;17.30;64.20;;;;;;6308621;22;20372;-72
2022/05/01 00:54:15;;;;;;;2.60;1.20;;;17.30;64.00;;;;;;6337480;22;20003;-72
2022/05/01 00:56:46;;;;;;;2.40;1.10;;;17.30;64.50;;;;;;6284941;22;20013;-73
2022/05/01 00:59:13;;;;;;;2.78;1.20;;;17.30;63.10;;;;;;6310394;22;20475;-72
2022/05/01 01:01:44;;;;;;;8.13;1.60;;;17.40;62.50;;;;;;6309414;22;20425;-73
2022/05/01 01:04:11;;;;;;;3.85;1.05;;;17.40;63.20;;;;;;6308131;22;19999;-74
2022/05/01 01:06:39;;;;;;;4.20;1.40;;;17.50;62.30;;;;;;6309710;22;20002;-72
2022/05/01 01:09:06;;;;;;;3.20;1.00;;;17.50;62.60;;;;;;6309070;22;20002;-72
2022/05/01 01:11:33;;;;;;;2.65;1.38;;;17.60;62.70;;;;;;6336451;22;20081;-72
2022/05/01 01:14:03;;;;;;;5.13;1.30;;;17.60;63.30;;;;;;6309530;22;19995;-73
2022/05/01 01:16:30;;;;;;;4.50;1.90;;;17.70;62.40;;;;;;6337131;22;20512;-73
2022/05/01 01:18:57;;;;;;;6.78;1.80;;;17.70;62.30;;;;;;6337021;22;20033;-73
2022/05/01 01:21:24;;;;;;;2.90;1.40;;;17.70;64.60;;;;;;6337236;22;20026;-73
2022/05/01 01:23:52;;;;;;;6.88;1.30;;;17.70;61.60;;;;;;6336956;22;20009;-73
2022/05/01 01:26:19;;;;;;;6.07;1.25;;;17.70;61.40;;;;;;6334428;22;20005;-75
2022/05/01 01:28:46;;;;;;;5.20;1.40;;;17.70;61.80;;;;;;6335798;22;20009;-72
2022/05/01 01:34:01;;;;;;;6.70;1.58;;;17.70;61.60;;;;;;6312112;22;20022;-72
2022/05/01 01:36:29;;;;;;;3.38;1.45;;;17.80;61.80;;;;;;6284352;22;20418;-70
2022/05/01 01:38:56;;;;;;;3.33;1.20;;;17.80;61.50;;;;;;6308173;22;20017;-71
2022/05/01 01:41:29;;;;;;;2.72;1.02;;;17.80;62.40;;;;;;6336919;22;20006;-72
2022/05/01 01:43:57;;;;;;;4.53;1.33;;;17.80;62.70;;;;;;6309527;22;19999;-72
2022/05/01 01:46:25;;;;;;;2.83;1.27;;;17.80;60.30;;;;;;6282968;22;20030;-71
2022/05/01 01:48:52;;;;;;;3.70;1.30;;;18.00;59.50;;;;;;6308845;22;20042;-72
2022/05/01 10:37:29;;;;;;;10.00;2.72;;;17.70;86.80;;;;;;6329201;22;20200;-70
2022/05/01 10:40:09;;;;;;;9.43;3.53;;;17.70;86.70;;;;;;6277825;22;20468;-69
2022/05/01 10:43:02;;;;;;;;;;;17.70;86.70;;;;;;6305384;22;20021;-71
2022/05/01 10:45:25;;;;;;;9.50;3.17;;;17.70;86.90;;;;;;6330918;22;19902;-69
2022/05/01 10:47:56;;;;;;;9.07;3.30;;;17.70;87.20;;;;;;6304916;22;20290;-69
2022/05/01 10:50:24;;;;;;;10.02;3.15;;;17.70;87.00;;;;;;6305996;22;20002;-70
2022/05/01 10:53:04;;;;;;;9.23;3.03;;;17.60;87.30;;;;;;6305544;22;20031;-70
2022/05/01 10:55:44;;;;;;;8.57;3.40;;;17.60;87.40;;;;;;6333354;22;20003;-71
2022/05/01 10:58:23;;;;;;;8.70;3.05;;;17.60;87.60;;;;;;6305367;22;20007;-71
2022/05/01 11:00:51;;;;;;;8.82;3.13;;;17.70;88.00;;;;;;6332819;22;20064;-71
2022/05/01 11:03:29;;;;;;;12.23;4.55;;;17.70;88.10;;;;;;6280428;22;20380;-71
2022/05/01 11:06:02;;;;;;;45.25;18.02;;;17.60;88.20;;;;;;6306049;22;20033;-70
2022/05/01 11:08:31;;;;;;;19.58;7.78;;;17.60;88.40;;;;;;6333250;22;20014;-71
2022/05/01 11:11:00;;;;;;;14.45;5.40;;;17.70;88.70;;;;;;6279126;22;20022;-72
2022/05/01 11:13:37;;;;;;;12.20;4.38;;;17.60;88.80;;;;;;6305122;22;19999;-71
2022/05/01 11:16:08;;;;;;;12.10;4.18;;;17.60;88.90;;;;;;6281140;22;20046;-70
2022/05/01 11:18:36;;;;;;;8.93;4.15;;;17.50;89.00;;;;;;6306405;22;20014;-71
2022/05/01 11:21:24;;;;;;;8.77;3.83;;;17.50;89.20;;;;;;6333705;22;20037;-72
2022/05/01 11:24:04;;;;;;;9.38;4.10;;;17.50;89.30;;;;;;6329186;22;20101;-70
2022/05/01 11:26:32;;;;;;;14.07;4.38;;;17.40;89.30;;;;;;6303827;22;20002;-69
2022/05/01 11:29:17;;;;;;;14.95;4.18;;;17.40;89.30;;;;;;6301586;22;20071;-71
2022/05/01 11:31:44;;;;;;;13.32;4.10;;;17.40;89.40;;;;;;6306940;22;20088;-71
2022/05/01 11:34:19;;;;;;;12.45;4.07;;;17.40;89.50;;;;;;6333165;22;20086;-70
2022/05/01 11:37:01;;;;;;;9.77;3.70;;;17.40;89.60;;;;;;6297826;22;20019;-70
2022/05/01 11:39:50;;;;;;;9.35;3.92;;;17.40;89.60;;;;;;6300306;22;20011;-69
2022/05/01 11:42:26;;;;;;;16.17;4.95;;;17.40;89.70;;;;;;6300872;22;20042;-70
2022/05/01 11:44:56;;;;;;;13.00;3.90;;;17.30;89.60;;;;;;6300647;22;20011;-70
2022/05/01 11:47:26;;;;;;;12.82;4.97;;;17.40;89.60;;;;;;6274173;22;20014;-71
2022/05/01 11:49:54;;;;;;;15.07;3.35;;;17.30;89.60;;;;;;6275756;22;20411;-70
2022/05/01 11:52:22;;;;;;;9.30;3.50;;;17.40;89.50;;;;;;6304382;22;20010;-70
2022/05/01 11:54:53;;;;;;;11.00;3.80;;;17.40;89.40;;;;;;6300869;22;20006;-72
2022/05/01 12:03:06;;;;;;;12.93;5.35;;;17.30;89.20;;;;;;6183722;22;20012;-72
2022/05/01 12:05:43;;;;;;;12.90;4.45;;;17.30;89.30;;;;;;6277992;22;20008;-72
2022/05/01 12:08:11;;;;;;;11.25;4.40;;;17.30;89.40;;;;;;6278383;22;20345;-72
2022/05/01 12:10:45;;;;;;;11.18;4.22;;;17.30;89.40;;;;;;6226570;22;20042;-72
2022/05/01 12:13:23;;;;;;;13.80;4.05;;;17.20;89.60;;;;;;6251527;22;20003;-72
2022/05/01 12:15:51;;;;;;;10.18;4.10;;;17.20;89.50;;;;;;6278092;22;20003;-71
2022/05/01 12:18:19;;;;;;;11.00;3.53;;;17.30;89.70;;;;;;6303595;22;20015;-71
2022/05/01 12:20:46;;;;;;;7.80;3.30;;;17.30;89.80;;;;;;6304136;22;19999;-71
2022/05/01 12:23:18;;;;;;;10.18;4.13;;;17.20;89.70;;;;;;6303622;22;20010;-71
2022/05/01 12:25:52;;;;;;;12.05;4.55;;;17.20;89.70;;;;;;6303711;22;20411;-71
2022/05/01 12:28:20;;;;;;;12.55;4.10;;;17.20;89.70;;;;;;6252650;22;20068;-71
2022/05/01 13:31:02;;;;;;;11.38;4.28;;;16.70;91.10;;;;;;6306312;22;20026;-71
2022/05/01 13:33:30;;;;;;;15.00;4.38;;;16.80;91.10;;;;;;6279685;22;20363;-72
2022/05/01 13:35:57;;;;;;;11.82;3.70;;;16.80;91.10;;;;;;6280256;22;20002;-72
2022/05/01 13:38:24;;;;;;;10.30;4.05;;;16.70;91.00;;;;;;6307288;22;20012;-72
2022/05/01 13:46:23;;;;;;;12.38;4.28;;;16.80;90.80;;;;;;6306657;22;20077;-72
2022/05/01 13:48:51;;;;;;;10.32;3.72;;;16.70;90.70;;;;;;6306162;22;20086;-72
2022/05/01 13:51:20;;;;;;;9.05;3.72;;;16.70;90.70;;;;;;6277418;22;20018;-72
2022/05/01 13:53:48;;;;;;;11.13;4.55;;;16.70;90.70;;;;;;6280492;22;20478;-72
2022/05/01 13:56:16;;;;;;;11.75;4.03;;;16.70;90.70;;;;;;6279610;22;20070;-72
2022/05/01 13:58:44;;;;;;;12.50;4.10;;;16.70;90.70;;;;;;6251918;22;20080;-72
2022/05/01 14:01:12;;;;;;;12.30;4.45;;;16.70;90.70;;;;;;6305991;22;19999;-72
2022/05/01 14:03:39;;;;;;;14.55;4.10;;;16.70;90.70;;;;;;6279641;22;20074;-72
2022/05/01 14:06:06;;;;;;;13.30;4.57;;;16.70;90.70;;;;;;6305945;22;20009;-72
2022/05/01 14:08:34;;;;;;;8.95;3.40;;;16.70;90.60;;;;;;6305909;22;20027;-72
2022/05/01 14:11:03;;;;;;;13.00;4.18;;;16.60;90.50;;;;;;6278577;22;20001;-72
2022/05/01 14:13:31;;;;;;;12.07;4.38;;;16.60;90.50;;;;;;6279138;22;20010;-72
2022/05/01 14:15:58;;;;;;;17.30;4.63;;;16.60;90.40;;;;;;6253869;22;20056;-72
2022/05/01 14:18:25;;;;;;;11.80;4.28;;;16.60;90.50;;;;;;6305203;22;20045;-72
2022/05/01 14:20:53;;;;;;;15.13;4.35;;;16.50;90.50;;;;;;6305276;22;20007;-72
2022/05/01 14:23:21;;;;;;;14.52;4.35;;;16.60;90.50;;;;;;6279035;22;20008;-72
2022/05/01 14:25:48;;;;;;;9.93;4.20;;;16.50;90.40;;;;;;6253825;22;19998;-72
2022/05/01 14:28:16;;;;;;;10.43;3.90;;;16.50;90.50;;;;;;6305281;22;20031;-72
2022/05/01 14:30:47;;;;;;;11.20;3.95;;;16.50;90.50;;;;;;6308212;22;20510;-72
2022/05/01 14:33:16;;;;;;;10.77;3.70;;;16.50;90.40;;;;;;6310131;22;20009;-73
2022/05/01 14:35:46;;;;;;;10.23;4.28;;;16.40;90.60;;;;;;6284884;22;19999;-72
2022/05/01 14:38:34;;;;;;;10.70;4.05;;;16.40;90.60;;;;;;6309988;22;20006;-72
2022/05/01 14:41:05;;;;;;;11.35;3.97;;;16.40;90.70;;;;;;6313992;22;19995;-72
2022/05/01 14:43:33;;;;;;;;;;;16.40;90.40;;;;;;6310807;22;20036;-72
2022/05/01 14:46:05;;;;;;;10.57;3.80;;;16.30;90.60;;;;;;6310057;22;19905;-72
2022/05/01 14:48:44;;;;;;;12.50;3.60;;;16.30;90.50;;;;;;6283518;22;20006;-72
2022/05/01 14:51:11;;;;;;;11.15;3.72;;;16.40;90.50;;;;;;6259015;22;20007;-73
2022/05/01 14:53:39;;;;;;;11.38;4.15;;;16.30;90.40;;;;;;6310062;22;20360;-72
2022/05/01 14:56:06;;;;;;;12.73;3.97;;;16.30;90.40;;;;;;6309817;22;20083;-72
2022/05/01 15:06:57;;;;;;;7.43;3.92;;;16.20;90.60;;;;;;6314173;22;20014;-72
2022/05/01 15:09:24;;;;;;;11.85;3.85;;;16.30;90.70;;;;;;6311082;22;20003;-72
2022/05/01 15:11:51;;;;;;;10.73;3.97;;;16.30;90.60;;;;;;6309802;22;20003;-73
2022/05/01 15:14:19;;;;;;;10.95;3.80;;;16.20;90.60;;;;;;6336468;22;20082;-72
2022/05/01 15:17:08;;;;;;;9.80;3.88;;;16.20;90.70;;;;;;6336933;22;20342;-72
2022/05/01 17:28:19;;;;;;;12.30;3.20;;;15.60;90.90;;;;;;6331695;22;20029;-72
2022/05/01 17:31:10;;;;;;;9.95;2.97;;;15.50;90.80;;;;;;6310071;22;20303;-73
2022/05/01 17:33:39;;;;;;;6.05;3.03;;;15.50;90.90;;;;;;6337705;22;20022;-72
2022/05/01 17:36:07;;;;;;;29.50;3.80;;;15.50;90.90;;;;;;6310901;22;20326;-72
2022/05/01 17:38:35;;;;;;;9.15;2.70;;;15.50;90.80;;;;;;6309986;22;20383;-73
2022/05/01 17:41:03;;;;;;;14.02;3.25;;;15.50;90.90;;;;;;6310433;22;20421;-73
2022/05/01 17:43:36;;;;;;;10.07;2.95;;;15.40;90.90;;;;;;6285024;22;19999;-72
2022/05/01 17:46:05;;;;;;;10.02;2.78;;;15.40;90.90;;;;;;6337737;22;19994;-72
2022/05/01 17:48:47;;;;;;;8.07;2.92;;;15.40;90.90;;;;;;6337668;22;20056;-72
2022/05/01 17:51:15;;;;;;;10.90;2.80;;;15.40;91.00;;;;;;6309825;22;20003;-72
2022/05/01 17:53:45;;;;;;;8.18;2.63;;;15.40;91.10;;;;;;6337132;22;20006;-72
2022/05/01 17:56:13;;;;;;;16.30;3.45;;;15.40;90.90;;;;;;6336870;22;20003;-72
2022/05/01 17:58:40;;;;;;;12.70;3.10;;;15.40;91.20;;;;;;6309577;22;20011;-72
2022/05/01 18:01:24;;;;;;;11.80;3.15;;;15.40;90.90;;;;;;6309482;22;20513;-72
2022/05/01 18:10:11;;;;;;;8.95;2.92;;;15.40;90.80;;;;;;6313416;22;20041;-72
2022/05/01 18:13:04;;;;;;;8.35;2.92;;;15.40;90.90;;;;;;6309880;22;20090;-72
2022/05/01 18:15:33;;;;;;;13.57;3.05;;;15.40;91.00;;;;;;6332144;22;20026;-72
2022/05/01 18:18:21;;;;;;;6.50;2.58;;;15.40;91.10;;;;;;6336601;22;20019;-73
2022/05/01 18:21:01;;;;;;;7.78;2.88;;;15.30;91.10;;;;;;6336462;22;20055;-72
2022/05/01 18:23:48;;;;;;;7.78;2.83;;;15.30;91.10;;;;;;6311970;22;20010;-72
2022/05/01 18:26:27;;;;;;;9.02;2.83;;;15.30;91.20;;;;;;6309775;22;20307;-72
2022/05/01 18:32:00;;;;;;;15.27;3.30;;;15.30;91.30;;;;;;6313163;22;20013;-73
2022/05/01 18:34:37;;;;;;;16.23;3.03;;;15.30;91.10;;;;;;6336085;22;20003;-73
2022/05/01 18:37:04;;;;;;;7.78;2.90;;;15.20;91.20;;;;;;6309904;22;20010;-72
2022/05/01 18:39:45;;;;;;;11.32;2.55;;;15.20;91.20;;;;;;6309561;22;20011;-72
2022/05/01 18:42:12;;;;;;;14.90;3.83;;;15.20;91.20;;;;;;6285845;22;19995;-72
2022/05/01 18:44:39;;;;;;;7.63;2.90;;;15.20;91.30;;;;;;6284555;22;20006;-73
2022/05/01 18:47:06;;;;;;;9.68;3.30;;;15.10;91.20;;;;;;6283839;22;20005;-72
2022/05/01 18:49:34;;;;;;;9.50;2.90;;;15.10;91.40;;;;;;6308144;22;20318;-72
2022/05/01 18:52:01;;;;;;;10.55;3.15;;;15.20;91.40;;;;;;6283787;22;20367;-72
2022/05/01 18:54:28;;;;;;;8.63;2.95;;;15.20;91.30;;;;;;6283288;22;20457;-72
2022/05/01 18:56:56;;;;;;;9.65;3.00;;;15.10;91.20;;;;;;6284026;22;20003;-72
2022/05/01 21:46:49;;;;;;;8.25;2.67;;;15.30;91.30;;;;;;6333645;22;20025;-74
2022/05/01 21:49:17;;;;;;;10.80;2.58;;;15.40;91.10;;;;;;6309864;22;20065;-75
2022/05/01 21:51:44;;;;;;;7.47;2.60;;;15.40;91.20;;;;;;6336749;22;20029;-76
2022/05/01 21:54:11;;;;;;;11.65;3.00;;;15.40;91.00;;;;;;6337613;22;20081;-75
2022/05/01 21:56:42;;;;;;;8.88;2.58;;;15.40;90.90;;;;;;6336849;22;20019;-75
2022/05/01 21:59:09;;;;;;;9.40;2.60;;;15.50;91.00;;;;;;6337562;22;20007;-75
2022/05/01 22:01:37;;;;;;;9.93;2.67;;;15.60;91.20;;;;;;6309609;22;20299;-77
2022/05/01 22:04:08;;;;;;;10.50;2.70;;;15.50;90.40;;;;;;6309806;22;20002;-77
2022/05/01 22:06:37;;;;;;;6.10;2.53;;;15.50;90.60;;;;;;6286046;22;19995;-75
2022/05/01 22:09:05;;;;;;;10.32;2.38;;;15.60;90.80;;;;;;6337743;22;20056;-76
2022/05/01 22:11:32;;;;;;;11.27;2.33;;;15.60;90.90;;;;;;6309961;22;20104;-75
2022/05/01 22:13:59;;;;;;;9.38;2.50;;;15.70;90.60;;;;;;6309179;22;20058;-75
2022/05/01 22:16:26;;;;;;;8.93;2.70;;;15.70;90.80;;;;;;6309975;22;20024;-75
2022/05/01 22:18:54;;;;;;;10.05;2.42;;;15.70;90.50;;;;;;6336618;22;20090;-72
2022/05/01 22:21:21;;;;;;;7.55;2.70;;;15.80;90.50;;;;;;6336230;22;20421;-70
2022/05/01 22:23:48;;;;;;;8.10;2.40;;;15.80;90.40;;;;;;6308597;22;20003;-69
2022/05/01 22:26:16;;;;;;;5.38;2.38;;;15.80;90.00;;;;;;6256050;22;20010;-70
2022/05/01 22:28:43;;;;;;;4.28;2.00;;;15.80;90.10;;;;;;6309197;22;20472;-70
2022/05/01 22:31:10;;;;;;;10.98;2.80;;;15.90;90.10;;;;;;6309661;22;19995;-70
2022/05/01 22:33:38;;;;;;;6.65;2.40;;;15.90;90.00;;;;;;6309422;22;20006;-70
2022/05/01 22:38:53;;;;;;;7.38;2.17;;;16.00;89.90;;;;;;6337663;22;20151;-69
2022/05/01 22:41:21;;;;;;;5.78;2.25;;;16.00;90.10;;;;;;6310096;22;20430;-70
2022/05/01 22:43:48;;;;;;;9.20;2.17;;;16.10;90.10;;;;;;6283868;22;20430;-70
